createdAt,value
2017-10-14T00:06:57.000Z,65.414
2017-10-14T00:16:57.000Z,65.393
2017-10-14T00:26:57.000Z,65.444
2017-10-14T00:36:57.000Z,65.496
2017-10-14T00:46:57.000Z,65.388
2017-10-14T00:56:57.000Z,65.504
2017-10-14T01:06:57.000Z,65.513
2017-10-14T01:16:57.000Z,65.542
2017-10-14T01:26:57.000Z,65.552
2017-10-14T01:37:00.000Z,65.573
2017-10-14T01:46:58.000Z,65.507
2017-10-14T01:56:58.000Z,65.581
2017-10-14T02:06:58.000Z,65.557
2017-10-14T02:16:58.000Z,65.609
2017-10-14T02:26:58.000Z,65.555
2017-10-14T02:36:58.000Z,65.566
2017-10-14T02:46:58.000Z,65.628
2017-10-14T02:56:59.000Z,65.584
2017-10-14T03:06:58.000Z,65.658
2017-10-14T03:16:58.000Z,65.657
2017-10-14T03:26:58.000Z,65.686
2017-10-14T03:36:58.000Z,65.729
2017-10-14T03:46:58.000Z,65.706
2017-10-14T03:56:58.000Z,65.746
2017-10-14T04:06:58.000Z,65.746
2017-10-14T04:16:58.000Z,65.777
2017-10-14T04:26:58.000Z,65.776
2017-10-14T04:36:58.000Z,65.794
2017-10-14T04:46:58.000Z,65.826
2017-10-14T04:56:58.000Z,65.835
2017-10-14T05:06:58.000Z,65.791
2017-10-14T05:16:58.000Z,65.885
2017-10-14T05:26:58.000Z,65.948
2017-10-14T05:36:58.000Z,65.903
2017-10-14T05:46:58.000Z,65.934
2017-10-14T05:56:58.000Z,65.944
2017-10-14T06:06:58.000Z,65.954
2017-10-14T06:16:58.000Z,65.912
2017-10-14T06:26:58.000Z,65.868
2017-10-14T06:36:58.000Z,65.835
2017-10-14T06:46:58.000Z,65.836
2017-10-14T06:56:58.000Z,65.826
2017-10-14T07:06:58.000Z,65.71
2017-10-14T07:16:58.000Z,65.658
2017-10-14T07:26:58.000Z,65.564
2017-10-14T07:36:58.000Z,65.482
2017-10-14T07:46:58.000Z,65.335
2017-10-14T07:56:58.000Z,65.294
2017-10-14T08:06:58.000Z,65.181
2017-10-14T08:16:58.000Z,64.95
2017-10-14T08:26:58.000Z,64.805
2017-10-14T08:36:58.000Z,64.687
2017-10-14T08:46:58.000Z,64.356
2017-10-14T08:56:58.000Z,64.017
2017-10-14T09:06:58.000Z,63.65
2017-10-14T09:16:58.000Z,63.522
2017-10-14T09:26:58.000Z,62.942
2017-10-14T09:46:58.000Z,61.618
2017-10-14T09:56:58.000Z,61.087
2017-10-14T10:06:58.000Z,60.459
2017-10-14T10:16:58.000Z,59.852
2017-10-14T10:26:59.000Z,59.731
2017-10-14T10:36:59.000Z,59.235
2017-10-14T10:46:59.000Z,58.15
2017-10-14T10:56:59.000Z,58.317
2017-10-14T11:06:59.000Z,58.299
2017-10-14T11:16:59.000Z,58.204
2017-10-14T11:27:00.000Z,58.289
2017-10-14T11:36:59.000Z,58.668
2017-10-14T11:46:59.000Z,58.601
2017-10-14T11:56:59.000Z,58.654
2017-10-14T12:06:59.000Z,58.535
2017-10-14T12:16:59.000Z,58.606
2017-10-14T12:26:59.000Z,58.775
2017-10-14T12:36:59.000Z,58.547
2017-10-14T12:46:59.000Z,58.674
2017-10-14T12:56:59.000Z,58.692
2017-10-14T13:06:59.000Z,58.69
2017-10-14T13:16:59.000Z,58.836
2017-10-14T13:26:59.000Z,58.694
2017-10-14T13:37:01.000Z,58.666
2017-10-14T13:46:59.000Z,58.392
2017-10-14T13:56:59.000Z,58.81
2017-10-14T14:06:59.000Z,58.81
2017-10-14T14:16:59.000Z,58.845
2017-10-14T14:26:59.000Z,59.207
2017-10-14T14:37:01.000Z,59.123
2017-10-14T14:46:59.000Z,59.452
2017-10-14T14:56:59.000Z,59.092
2017-10-14T15:06:59.000Z,59.319
2017-10-14T15:16:59.000Z,59.483
2017-10-14T15:26:59.000Z,59.929
2017-10-14T15:36:59.000Z,59.929
2017-10-14T15:46:59.000Z,60.261
2017-10-14T15:56:59.000Z,60.314
2017-10-14T16:06:59.000Z,60.495
2017-10-14T16:16:59.000Z,60.651
2017-10-14T16:26:59.000Z,60.66
2017-10-14T16:36:59.000Z,60.715
2017-10-14T16:46:59.000Z,61.075
2017-10-14T16:56:59.000Z,60.996
2017-10-14T17:06:59.000Z,61.717
2017-10-14T17:16:59.000Z,62.295
2017-10-14T17:26:59.000Z,63.227
2017-10-14T17:36:59.000Z,62.816
2017-10-14T17:46:59.000Z,63.354
2017-10-14T17:56:59.000Z,63.248
2017-10-14T18:06:59.000Z,63.818
2017-10-14T18:17:01.000Z,64.301
2017-10-14T18:26:59.000Z,64.904
2017-10-14T18:36:59.000Z,65.159
2017-10-14T18:47:00.000Z,65.139
2017-10-14T18:57:00.000Z,66.102
2017-10-14T19:07:00.000Z,66.636
2017-10-14T19:27:00.000Z,66.051
2017-10-14T19:37:00.000Z,66.136
2017-10-14T19:47:00.000Z,64.688
2017-10-14T19:57:00.000Z,64.625
2017-10-14T20:07:00.000Z,64.458
2017-10-14T20:17:00.000Z,64.561
2017-10-14T20:27:00.000Z,64.423
2017-10-14T20:37:00.000Z,64.269
2017-10-14T20:47:01.000Z,64.644
2017-10-14T20:57:00.000Z,64.689
2017-10-14T21:07:00.000Z,64.514
2017-10-14T21:17:00.000Z,63.641
2017-10-14T21:27:00.000Z,63.868
2017-10-14T21:37:00.000Z,63.774
2017-10-14T21:47:00.000Z,63.726
2017-10-14T21:57:00.000Z,63.702
2017-10-14T22:07:00.000Z,63.894
2017-10-14T22:17:00.000Z,63.874
2017-10-14T22:27:00.000Z,63.756
2017-10-14T22:37:00.000Z,63.625
2017-10-14T22:47:00.000Z,63.694
2017-10-14T22:57:00.000Z,64.836
2017-10-14T23:07:00.000Z,63.943
2017-10-14T23:17:00.000Z,64.353
2017-10-14T23:27:00.000Z,64.631
2017-10-14T23:37:00.000Z,64.723
2017-10-14T23:47:00.000Z,64.672
2017-10-14T23:57:00.000Z,64.626
